sensor_id;sensor_type;location;lat;lon;timestamp;P1;durP1;ratioP1;P2;durP2;ratioP2
13989;SDS011;7069;52.528;13.316;2023-02-28T00:00:50;3.90;;;3.40;;
13989;SDS011;7069;52.528;13.316;2023-02-28T00:03:16;3.77;;;3.13;;
13989;SDS011;7069;52.528;13.316;2023-02-28T00:05:44;4.50;;;3.60;;
13989;SDS011;7069;52.528;13.316;2023-02-28T00:08:11;7.67;;;3.87;;
13989;SDS011;7069;52.528;13.316;2023-02-28T00:10:38;4.97;;;3.10;;
13989;SDS011;7069;52.528;13.316;2023-02-28T00:13:05;4.43;;;3.57;;
13989;SDS011;7069;52.528;13.316;2023-02-28T00:15:32;3.60;;;3.27;;
13989;SDS011;7069;52.528;13.316;2023-02-28T00:17:59;4.50;;;3.30;;
13989;SDS011;7069;52.528;13.316;2023-02-28T00:20:25;5.57;;;4.77;;
13989;SDS011;7069;52.528;13.316;2023-02-28T00:22:53;6.53;;;3.80;;
13989;SDS011;7069;52.528;13.316;2023-02-28T00:25:21;7.10;;;3.67;;
13989;SDS011;7069;52.528;13.316;2023-02-28T00:27:48;7.47;;;3.80;;
13989;SDS011;7069;52.528;13.316;2023-02-28T00:30:15;4.97;;;3.03;;
13989;SDS011;7069;52.528;13.316;2023-02-28T00:32:42;6.50;;;3.33;;
13989;SDS011;7069;52.528;13.316;2023-02-28T00:35:09;5.40;;;4.00;;
13989;SDS011;7069;52.528;13.316;2023-02-28T00:37:35;6.77;;;3.67;;
13989;SDS011;7069;52.528;13.316;2023-02-28T00:40:04;4.50;;;3.20;;
13989;SDS011;7069;52.528;13.316;2023-02-28T00:42:31;4.87;;;4.03;;
13989;SDS011;7069;52.528;13.316;2023-02-28T00:44:57;4.67;;;3.33;;
13989;SDS011;7069;52.528;13.316;2023-02-28T00:47:24;6.70;;;4.07;;
13989;SDS011;7069;52.528;13.316;2023-02-28T00:49:50;4.17;;;3.63;;
13989;SDS011;7069;52.528;13.316;2023-02-28T00:52:17;5.00;;;3.20;;
13989;SDS011;7069;52.528;13.316;2023-02-28T00:54:43;4.23;;;3.20;;
13989;SDS011;7069;52.528;13.316;2023-02-28T00:57:11;6.60;;;2.90;;
13989;SDS011;7069;52.528;13.316;2023-02-28T00:59:37;6.80;;;3.90;;
13989;SDS011;7069;52.528;13.316;2023-02-28T01:02:04;8.40;;;3.93;;
13989;SDS011;7069;52.528;13.316;2023-02-28T01:04:30;7.47;;;3.47;;
13989;SDS011;7069;52.528;13.316;2023-02-28T01:06:56;4.53;;;2.83;;
13989;SDS011;7069;52.528;13.316;2023-02-28T01:09:23;5.83;;;3.50;;
13989;SDS011;7069;52.528;13.316;2023-02-28T01:11:49;4.57;;;3.70;;
13989;SDS011;7069;52.528;13.316;2023-02-28T01:14:17;9.97;;;4.10;;
13989;SDS011;7069;52.528;13.316;2023-02-28T01:16:43;5.80;;;3.63;;
13989;SDS011;7069;52.528;13.316;2023-02-28T01:19:10;4.13;;;2.97;;
13989;SDS011;7069;52.528;13.316;2023-02-28T01:21:36;4.53;;;3.40;;
13989;SDS011;7069;52.528;13.316;2023-02-28T01:24:03;4.00;;;2.47;;
13989;SDS011;7069;52.528;13.316;2023-02-28T01:26:30;4.83;;;3.43;;
13989;SDS011;7069;52.528;13.316;2023-02-28T01:28:57;3.80;;;3.40;;
13989;SDS011;7069;52.528;13.316;2023-02-28T01:31:25;5.47;;;3.13;;
13989;SDS011;7069;52.528;13.316;2023-02-28T01:33:51;6.20;;;3.57;;
13989;SDS011;7069;52.528;13.316;2023-02-28T01:36:19;4.60;;;3.30;;
13989;SDS011;7069;52.528;13.316;2023-02-28T01:38:45;4.17;;;3.57;;
13989;SDS011;7069;52.528;13.316;2023-02-28T01:41:14;4.40;;;2.73;;
13989;SDS011;7069;52.528;13.316;2023-02-28T01:43:57;3.93;;;2.53;;
13989;SDS011;7069;52.528;13.316;2023-02-28T01:46:26;5.57;;;3.20;;
13989;SDS011;7069;52.528;13.316;2023-02-28T01:48:53;5.57;;;3.40;;
13989;SDS011;7069;52.528;13.316;2023-02-28T01:51:21;4.90;;;3.30;;
13989;SDS011;7069;52.528;13.316;2023-02-28T01:53:49;3.87;;;3.40;;
13989;SDS011;7069;52.528;13.316;2023-02-28T01:56:17;8.17;;;3.07;;
13989;SDS011;7069;52.528;13.316;2023-02-28T01:58:45;3.97;;;3.40;;
13989;SDS011;7069;52.528;13.316;2023-02-28T02:01:12;4.77;;;3.23;;
13989;SDS011;7069;52.528;13.316;2023-02-28T02:03:48;6.20;;;3.53;;
13989;SDS011;7069;52.528;13.316;2023-02-28T02:06:20;5.63;;;4.03;;
13989;SDS011;7069;52.528;13.316;2023-02-28T02:08:47;6.90;;;3.43;;
13989;SDS011;7069;52.528;13.316;2023-02-28T02:11:13;3.70;;;3.30;;
13989;SDS011;7069;52.528;13.316;2023-02-28T02:13:56;4.10;;;3.37;;
13989;SDS011;7069;52.528;13.316;2023-02-28T02:16:31;5.40;;;3.90;;
13989;SDS011;7069;52.528;13.316;2023-02-28T02:19:02;5.77;;;3.53;;
13989;SDS011;7069;52.528;13.316;2023-02-28T02:24:32;5.33;;;4.17;;
13989;SDS011;7069;52.528;13.316;2023-02-28T02:27:05;5.90;;;3.80;;
13989;SDS011;7069;52.528;13.316;2023-02-28T02:29:40;7.60;;;5.00;;
13989;SDS011;7069;52.528;13.316;2023-02-28T02:32:18;7.97;;;4.80;;
13989;SDS011;7069;52.528;13.316;2023-02-28T02:34:52;7.30;;;4.00;;
13989;SDS011;7069;52.528;13.316;2023-02-28T02:37:24;4.47;;;3.83;;
13989;SDS011;7069;52.528;13.316;2023-02-28T02:39:58;4.10;;;3.40;;
13989;SDS011;7069;52.528;13.316;2023-02-28T02:42:27;6.17;;;4.97;;
13989;SDS011;7069;52.528;13.316;2023-02-28T02:44:56;6.53;;;3.70;;
13989;SDS011;7069;52.528;13.316;2023-02-28T02:47:26;5.53;;;3.90;;
13989;SDS011;7069;52.528;13.316;2023-02-28T02:49:56;7.03;;;4.30;;
13989;SDS011;7069;52.528;13.316;2023-02-28T02:52:25;7.97;;;4.57;;
13989;SDS011;7069;52.528;13.316;2023-02-28T02:54:54;6.70;;;4.60;;
13989;SDS011;7069;52.528;13.316;2023-02-28T02:57:22;8.43;;;4.43;;
13989;SDS011;7069;52.528;13.316;2023-02-28T02:59:51;5.57;;;4.10;;
13989;SDS011;7069;52.528;13.316;2023-02-28T03:02:19;6.83;;;4.87;;
13989;SDS011;7069;52.528;13.316;2023-02-28T03:04:48;8.37;;;4.90;;
13989;SDS011;7069;52.528;13.316;2023-02-28T03:07:18;7.33;;;5.50;;
13989;SDS011;7069;52.528;13.316;2023-02-28T03:09:50;8.30;;;6.07;;
13989;SDS011;7069;52.528;13.316;2023-02-28T03:12:17;7.97;;;5.83;;
13989;SDS011;7069;52.528;13.316;2023-02-28T03:14:47;8.40;;;5.70;;
13989;SDS011;7069;52.528;13.316;2023-02-28T03:17:23;9.63;;;5.80;;
13989;SDS011;7069;52.528;13.316;2023-02-28T03:19:55;9.30;;;6.17;;
13989;SDS011;7069;52.528;13.316;2023-02-28T03:25:08;9.77;;;6.30;;
13989;SDS011;7069;52.528;13.316;2023-02-28T03:27:39;8.50;;;6.10;;
13989;SDS011;7069;52.528;13.316;2023-02-28T03:30:09;9.53;;;5.53;;
13989;SDS011;7069;52.528;13.316;2023-02-28T03:32:36;9.23;;;5.37;;
13989;SDS011;7069;52.528;13.316;2023-02-28T03:35:06;8.20;;;5.30;;
13989;SDS011;7069;52.528;13.316;2023-02-28T03:37:35;9.30;;;5.87;;
13989;SDS011;7069;52.528;13.316;2023-02-28T03:40:04;11.90;;;5.63;;
13989;SDS011;7069;52.528;13.316;2023-02-28T03:42:35;9.07;;;5.37;;
13989;SDS011;7069;52.528;13.316;2023-02-28T03:45:04;9.17;;;5.33;;
13989;SDS011;7069;52.528;13.316;2023-02-28T03:47:33;7.70;;;5.30;;
13989;SDS011;7069;52.528;13.316;2023-02-28T03:50:03;9.03;;;5.10;;
13989;SDS011;7069;52.528;13.316;2023-02-28T03:52:32;6.13;;;5.47;;
13989;SDS011;7069;52.528;13.316;2023-02-28T03:55:00;7.43;;;5.33;;
13989;SDS011;7069;52.528;13.316;2023-02-28T03:57:32;9.93;;;5.50;;
13989;SDS011;7069;52.528;13.316;2023-02-28T04:00:03;7.47;;;4.60;;
13989;SDS011;7069;52.528;13.316;2023-02-28T04:02:31;10.37;;;6.07;;
13989;SDS011;7069;52.528;13.316;2023-02-28T04:04:57;9.73;;;6.40;;
13989;SDS011;7069;52.528;13.316;2023-02-28T04:07:24;9.37;;;5.27;;
13989;SDS011;7069;52.528;13.316;2023-02-28T04:09:51;7.33;;;5.33;;
13989;SDS011;7069;52.528;13.316;2023-02-28T04:12:18;8.20;;;5.07;;
13989;SDS011;7069;52.528;13.316;2023-02-28T04:14:46;8.07;;;5.23;;
13989;SDS011;7069;52.528;13.316;2023-02-28T04:17:14;7.33;;;5.00;;
13989;SDS011;7069;52.528;13.316;2023-02-28T04:19:41;8.63;;;5.53;;
13989;SDS011;7069;52.528;13.316;2023-02-28T04:22:08;9.27;;;4.83;;
13989;SDS011;7069;52.528;13.316;2023-02-28T04:24:35;7.07;;;5.43;;
13989;SDS011;7069;52.528;13.316;2023-02-28T04:27:01;8.00;;;5.00;;
13989;SDS011;7069;52.528;13.316;2023-02-28T04:29:34;9.50;;;5.93;;
13989;SDS011;7069;52.528;13.316;2023-02-28T04:32:01;6.47;;;5.37;;
13989;SDS011;7069;52.528;13.316;2023-02-28T04:34:30;5.80;;;4.37;;
13989;SDS011;7069;52.528;13.316;2023-02-28T04:36:57;6.73;;;5.17;;
13989;SDS011;7069;52.528;13.316;2023-02-28T04:39:25;8.27;;;5.57;;
13989;SDS011;7069;52.528;13.316;2023-02-28T04:41:51;6.93;;;4.67;;
13989;SDS011;7069;52.528;13.316;2023-02-28T04:44:18;7.80;;;4.63;;
13989;SDS011;7069;52.528;13.316;2023-02-28T04:46:47;8.33;;;5.90;;
13989;SDS011;7069;52.528;13.316;2023-02-28T04:49:13;7.83;;;5.93;;
13989;SDS011;7069;52.528;13.316;2023-02-28T04:51:42;7.03;;;5.47;;
13989;SDS011;7069;52.528;13.316;2023-02-28T04:54:08;8.07;;;5.60;;
13989;SDS011;7069;52.528;13.316;2023-02-28T04:56:35;9.00;;;6.07;;
13989;SDS011;7069;52.528;13.316;2023-02-28T04:59:01;10.50;;;5.23;;
13989;SDS011;7069;52.528;13.316;2023-02-28T05:01:29;7.10;;;4.97;;
13989;SDS011;7069;52.528;13.316;2023-02-28T05:03:57;7.20;;;4.67;;
13989;SDS011;7069;52.528;13.316;2023-02-28T05:06:24;8.77;;;5.30;;
13989;SDS011;7069;52.528;13.316;2023-02-28T05:08:53;6.90;;;5.00;;
13989;SDS011;7069;52.528;13.316;2023-02-28T05:11:20;5.70;;;4.97;;
13989;SDS011;7069;52.528;13.316;2023-02-28T05:13:47;7.93;;;5.27;;
13989;SDS011;7069;52.528;13.316;2023-02-28T05:16:14;7.97;;;5.03;;
13989;SDS011;7069;52.528;13.316;2023-02-28T05:18:41;8.50;;;6.80;;
13989;SDS011;7069;52.528;13.316;2023-02-28T05:21:17;8.53;;;6.23;;
13989;SDS011;7069;52.528;13.316;2023-02-28T05:23:49;8.63;;;6.27;;
13989;SDS011;7069;52.528;13.316;2023-02-28T05:26:17;7.70;;;5.43;;
13989;SDS011;7069;52.528;13.316;2023-02-28T05:28:44;10.50;;;6.30;;
13989;SDS011;7069;52.528;13.316;2023-02-28T05:31:11;9.43;;;5.93;;
13989;SDS011;7069;52.528;13.316;2023-02-28T05:33:37;8.53;;;6.00;;
13989;SDS011;7069;52.528;13.316;2023-02-28T05:36:05;6.83;;;6.00;;
13989;SDS011;7069;52.528;13.316;2023-02-28T05:38:31;8.53;;;5.90;;
13989;SDS011;7069;52.528;13.316;2023-02-28T05:40:58;9.00;;;5.90;;
13989;SDS011;7069;52.528;13.316;2023-02-28T05:43:26;7.70;;;6.80;;
13989;SDS011;7069;52.528;13.316;2023-02-28T05:45:53;9.53;;;6.73;;
13989;SDS011;7069;52.528;13.316;2023-02-28T05:48:19;8.83;;;5.73;;
13989;SDS011;7069;52.528;13.316;2023-02-28T05:50:46;11.53;;;5.73;;
13989;SDS011;7069;52.528;13.316;2023-02-28T05:53:12;16.37;;;7.30;;
13989;SDS011;7069;52.528;13.316;2023-02-28T05:55:39;10.53;;;7.17;;
13989;SDS011;7069;52.528;13.316;2023-02-28T05:58:06;8.50;;;5.30;;
13989;SDS011;7069;52.528;13.316;2023-02-28T06:00:34;8.70;;;6.37;;
13989;SDS011;7069;52.528;13.316;2023-02-28T06:03:01;6.40;;;5.70;;
13989;SDS011;7069;52.528;13.316;2023-02-28T06:05:28;7.37;;;5.93;;
13989;SDS011;7069;52.528;13.316;2023-02-28T06:07:54;10.43;;;6.67;;
13989;SDS011;7069;52.528;13.316;2023-02-28T06:10:21;8.43;;;5.80;;
13989;SDS011;7069;52.528;13.316;2023-02-28T06:12:47;10.23;;;5.73;;
13989;SDS011;7069;52.528;13.316;2023-02-28T06:15:14;9.53;;;6.33;;
13989;SDS011;7069;52.528;13.316;2023-02-28T06:17:43;11.13;;;7.07;;
13989;SDS011;7069;52.528;13.316;2023-02-28T06:20:11;9.70;;;6.57;;
13989;SDS011;7069;52.528;13.316;2023-02-28T06:22:38;11.17;;;7.13;;
13989;SDS011;7069;52.528;13.316;2023-02-28T06:25:05;10.67;;;6.30;;
13989;SDS011;7069;52.528;13.316;2023-02-28T06:27:32;10.73;;;7.10;;
13989;SDS011;7069;52.528;13.316;2023-02-28T06:29:59;9.97;;;6.87;;
13989;SDS011;7069;52.528;13.316;2023-02-28T06:32:26;9.50;;;7.20;;
13989;SDS011;7069;52.528;13.316;2023-02-28T06:34:53;9.37;;;6.97;;
13989;SDS011;7069;52.528;13.316;2023-02-28T06:37:22;10.20;;;6.50;;
13989;SDS011;7069;52.528;13.316;2023-02-28T06:39:51;10.87;;;7.70;;
13989;SDS011;7069;52.528;13.316;2023-02-28T06:42:17;13.37;;;7.83;;
13989;SDS011;7069;52.528;13.316;2023-02-28T06:44:44;11.87;;;8.70;;
13989;SDS011;7069;52.528;13.316;2023-02-28T06:47:11;15.73;;;9.60;;
13989;SDS011;7069;52.528;13.316;2023-02-28T06:49:38;12.10;;;7.93;;
13989;SDS011;7069;52.528;13.316;2023-02-28T06:52:07;12.10;;;9.03;;
13989;SDS011;7069;52.528;13.316;2023-02-28T06:54:36;16.13;;;9.00;;
13989;SDS011;7069;52.528;13.316;2023-02-28T06:57:02;15.53;;;8.90;;
13989;SDS011;7069;52.528;13.316;2023-02-28T06:59:29;10.63;;;8.03;;
13989;SDS011;7069;52.528;13.316;2023-02-28T07:01:56;11.67;;;7.93;;
13989;SDS011;7069;52.528;13.316;2023-02-28T07:04:23;13.40;;;8.57;;
13989;SDS011;7069;52.528;13.316;2023-02-28T07:06:49;11.90;;;7.73;;
13989;SDS011;7069;52.528;13.316;2023-02-28T07:09:17;12.73;;;8.40;;
13989;SDS011;7069;52.528;13.316;2023-02-28T07:11:44;15.60;;;8.63;;
13989;SDS011;7069;52.528;13.316;2023-02-28T07:14:11;13.67;;;9.13;;
13989;SDS011;7069;52.528;13.316;2023-02-28T07:16:38;16.80;;;9.70;;
13989;SDS011;7069;52.528;13.316;2023-02-28T07:19:05;17.80;;;10.80;;
13989;SDS011;7069;52.528;13.316;2023-02-28T07:21:31;21.80;;;12.90;;
13989;SDS011;7069;52.528;13.316;2023-02-28T07:23:58;22.13;;;11.63;;
13989;SDS011;7069;52.528;13.316;2023-02-28T07:26:26;17.17;;;12.10;;
13989;SDS011;7069;52.528;13.316;2023-02-28T07:28:53;16.73;;;11.43;;
13989;SDS011;7069;52.528;13.316;2023-02-28T07:31:19;16.53;;;11.50;;
13989;SDS011;7069;52.528;13.316;2023-02-28T07:33:46;15.13;;;11.43;;
13989;SDS011;7069;52.528;13.316;2023-02-28T07:36:13;15.17;;;8.97;;
13989;SDS011;7069;52.528;13.316;2023-02-28T07:38:41;16.33;;;11.43;;
13989;SDS011;7069;52.528;13.316;2023-02-28T07:41:08;14.70;;;9.93;;
13989;SDS011;7069;52.528;13.316;2023-02-28T07:43:36;13.87;;;9.67;;
13989;SDS011;7069;52.528;13.316;2023-02-28T07:46:03;13.40;;;9.27;;
13989;SDS011;7069;52.528;13.316;2023-02-28T07:48:30;13.37;;;8.77;;
13989;SDS011;7069;52.528;13.316;2023-02-28T07:50:56;16.23;;;8.47;;
13989;SDS011;7069;52.528;13.316;2023-02-28T07:53:23;12.10;;;8.87;;
13989;SDS011;7069;52.528;13.316;2023-02-28T07:55:50;15.03;;;9.67;;
13989;SDS011;7069;52.528;13.316;2023-02-28T07:58:18;14.43;;;9.90;;
13989;SDS011;7069;52.528;13.316;2023-02-28T08:00:46;14.17;;;8.90;;
13989;SDS011;7069;52.528;13.316;2023-02-28T08:03:12;15.10;;;9.80;;
13989;SDS011;7069;52.528;13.316;2023-02-28T08:05:39;12.17;;;8.53;;
13989;SDS011;7069;52.528;13.316;2023-02-28T08:08:06;12.87;;;9.50;;
13989;SDS011;7069;52.528;13.316;2023-02-28T08:10:32;13.87;;;8.70;;
13989;SDS011;7069;52.528;13.316;2023-02-28T08:12:59;12.70;;;8.47;;
13989;SDS011;7069;52.528;13.316;2023-02-28T08:15:26;17.47;;;9.40;;
13989;SDS011;7069;52.528;13.316;2023-02-28T08:17:54;9.80;;;7.57;;
13989;SDS011;7069;52.528;13.316;2023-02-28T08:20:21;12.40;;;8.13;;
13989;SDS011;7069;52.528;13.316;2023-02-28T08:22:48;9.77;;;6.93;;
13989;SDS011;7069;52.528;13.316;2023-02-28T08:25:14;12.20;;;6.87;;
13989;SDS011;7069;52.528;13.316;2023-02-28T08:27:41;9.70;;;6.40;;
13989;SDS011;7069;52.528;13.316;2023-02-28T08:30:08;10.07;;;7.10;;
13989;SDS011;7069;52.528;13.316;2023-02-28T08:32:35;8.13;;;6.83;;
13989;SDS011;7069;52.528;13.316;2023-02-28T08:35:04;6.50;;;5.33;;
13989;SDS011;7069;52.528;13.316;2023-02-28T08:37:31;3.73;;;3.37;;
13989;SDS011;7069;52.528;13.316;2023-02-28T08:39:57;8.67;;;5.07;;
13989;SDS011;7069;52.528;13.316;2023-02-28T08:42:24;13.20;;;4.57;;
13989;SDS011;7069;52.528;13.316;2023-02-28T08:44:50;9.00;;;3.67;;
13989;SDS011;7069;52.528;13.316;2023-02-28T08:47:17;3.43;;;2.37;;
13989;SDS011;7069;52.528;13.316;2023-02-28T08:49:43;2.57;;;2.33;;
13989;SDS011;7069;52.528;13.316;2023-02-28T08:52:11;4.17;;;2.87;;
13989;SDS011;7069;52.528;13.316;2023-02-28T08:54:38;5.80;;;3.33;;
13989;SDS011;7069;52.528;13.316;2023-02-28T08:57:05;4.00;;;2.53;;
13989;SDS011;7069;52.528;13.316;2023-02-28T08:59:31;4.63;;;2.87;;
13989;SDS011;7069;52.528;13.316;2023-02-28T09:01:58;4.17;;;2.70;;
13989;SDS011;7069;52.528;13.316;2023-02-28T09:04:25;6.90;;;2.83;;
13989;SDS011;7069;52.528;13.316;2023-02-28T09:06:51;2.97;;;2.33;;
13989;SDS011;7069;52.528;13.316;2023-02-28T09:09:20;4.53;;;2.70;;
13989;SDS011;7069;52.528;13.316;2023-02-28T09:11:47;2.70;;;1.83;;
13989;SDS011;7069;52.528;13.316;2023-02-28T09:14:13;4.03;;;2.83;;
13989;SDS011;7069;52.528;13.316;2023-02-28T09:16:42;3.60;;;2.33;;
13989;SDS011;7069;52.528;13.316;2023-02-28T09:19:10;2.77;;;2.03;;
13989;SDS011;7069;52.528;13.316;2023-02-28T09:21:36;1.90;;;1.70;;
13989;SDS011;7069;52.528;13.316;2023-02-28T09:24:03;4.73;;;2.10;;
13989;SDS011;7069;52.528;13.316;2023-02-28T09:26:31;1.83;;;1.67;;
13989;SDS011;7069;52.528;13.316;2023-02-28T09:28:58;2.17;;;1.97;;
13989;SDS011;7069;52.528;13.316;2023-02-28T09:31:25;2.20;;;2.00;;
13989;SDS011;7069;52.528;13.316;2023-02-28T09:33:53;2.20;;;1.80;;
13989;SDS011;7069;52.528;13.316;2023-02-28T09:36:20;2.80;;;2.03;;
13989;SDS011;7069;52.528;13.316;2023-02-28T09:38:47;2.77;;;2.47;;
13989;SDS011;7069;52.528;13.316;2023-02-28T09:41:17;4.27;;;2.40;;
13989;SDS011;7069;52.528;13.316;2023-02-28T09:43:47;2.67;;;1.90;;
13989;SDS011;7069;52.528;13.316;2023-02-28T09:46:20;4.00;;;2.40;;
13989;SDS011;7069;52.528;13.316;2023-02-28T09:48:47;4.50;;;1.60;;
13989;SDS011;7069;52.528;13.316;2023-02-28T09:51:16;3.57;;;2.00;;
13989;SDS011;7069;52.528;13.316;2023-02-28T09:53:49;2.47;;;1.90;;
13989;SDS011;7069;52.528;13.316;2023-02-28T09:56:18;5.07;;;2.20;;
13989;SDS011;7069;52.528;13.316;2023-02-28T09:58:54;3.33;;;2.00;;
13989;SDS011;7069;52.528;13.316;2023-02-28T10:01:24;3.13;;;2.63;;
13989;SDS011;7069;52.528;13.316;2023-02-28T10:03:54;3.00;;;2.40;;
13989;SDS011;7069;52.528;13.316;2023-02-28T10:06:22;4.13;;;2.70;;
13989;SDS011;7069;52.528;13.316;2023-02-28T10:08:53;10.90;;;2.43;;
13989;SDS011;7069;52.528;13.316;2023-02-28T10:11:22;3.60;;;2.20;;
13989;SDS011;7069;52.528;13.316;2023-02-28T10:13:51;2.13;;;1.80;;
13989;SDS011;7069;52.528;13.316;2023-02-28T10:16:24;2.90;;;1.97;;
13989;SDS011;7069;52.528;13.316;2023-02-28T10:18:52;2.97;;;2.00;;
13989;SDS011;7069;52.528;13.316;2023-02-28T10:21:20;1.70;;;1.60;;
13989;SDS011;7069;52.528;13.316;2023-02-28T10:23:49;3.70;;;1.80;;
13989;SDS011;7069;52.528;13.316;2023-02-28T10:26:16;3.13;;;2.20;;
13989;SDS011;7069;52.528;13.316;2023-02-28T10:28:43;2.80;;;2.40;;
13989;SDS011;7069;52.528;13.316;2023-02-28T10:31:11;2.50;;;1.93;;
13989;SDS011;7069;52.528;13.316;2023-02-28T10:33:39;2.63;;;2.10;;
13989;SDS011;7069;52.528;13.316;2023-02-28T10:36:08;4.40;;;2.73;;
13989;SDS011;7069;52.528;13.316;2023-02-28T10:38:37;3.13;;;2.17;;
13989;SDS011;7069;52.528;13.316;2023-02-28T10:41:05;1.83;;;1.70;;
13989;SDS011;7069;52.528;13.316;2023-02-28T10:43:31;3.80;;;2.50;;
13989;SDS011;7069;52.528;13.316;2023-02-28T10:45:59;3.20;;;2.13;;
13989;SDS011;7069;52.528;13.316;2023-02-28T10:48:31;2.90;;;2.13;;
13989;SDS011;7069;52.528;13.316;2023-02-28T10:50:59;3.80;;;2.40;;
13989;SDS011;7069;52.528;13.316;2023-02-28T10:53:34;4.90;;;2.30;;
13989;SDS011;7069;52.528;13.316;2023-02-28T10:56:02;3.80;;;2.13;;
13989;SDS011;7069;52.528;13.316;2023-02-28T10:58:30;6.13;;;2.27;;
13989;SDS011;7069;52.528;13.316;2023-02-28T11:00:57;3.57;;;2.03;;
13989;SDS011;7069;52.528;13.316;2023-02-28T11:03:24;2.40;;;1.97;;
13989;SDS011;7069;52.528;13.316;2023-02-28T11:05:51;2.57;;;2.30;;
13989;SDS011;7069;52.528;13.316;2023-02-28T11:08:18;2.57;;;2.13;;
13989;SDS011;7069;52.528;13.316;2023-02-28T11:10:45;6.53;;;1.90;;
13989;SDS011;7069;52.528;13.316;2023-02-28T11:13:15;2.50;;;2.00;;
13989;SDS011;7069;52.528;13.316;2023-02-28T11:15:43;2.47;;;1.70;;
13989;SDS011;7069;52.528;13.316;2023-02-28T11:18:21;2.10;;;1.73;;
13989;SDS011;7069;52.528;13.316;2023-02-28T11:20:48;3.20;;;2.43;;
13989;SDS011;7069;52.528;13.316;2023-02-28T11:23:16;2.37;;;1.93;;
13989;SDS011;7069;52.528;13.316;2023-02-28T11:25:47;2.63;;;2.23;;
13989;SDS011;7069;52.528;13.316;2023-02-28T11:28:23;4.67;;;2.27;;
13989;SDS011;7069;52.528;13.316;2023-02-28T11:30:59;4.27;;;2.33;;
13989;SDS011;7069;52.528;13.316;2023-02-28T11:33:27;4.50;;;2.23;;
13989;SDS011;7069;52.528;13.316;2023-02-28T11:35:55;6.37;;;2.03;;
13989;SDS011;7069;52.528;13.316;2023-02-28T11:38:24;4.23;;;2.20;;
13989;SDS011;7069;52.528;13.316;2023-02-28T11:40:54;2.23;;;1.63;;
13989;SDS011;7069;52.528;13.316;2023-02-28T11:43:27;2.63;;;1.53;;
13989;SDS011;7069;52.528;13.316;2023-02-28T11:46:04;3.03;;;2.10;;
13989;SDS011;7069;52.528;13.316;2023-02-28T11:48:32;2.70;;;1.60;;
13989;SDS011;7069;52.528;13.316;2023-02-28T11:51:06;3.00;;;2.07;;
13989;SDS011;7069;52.528;13.316;2023-02-28T11:53:43;2.73;;;1.97;;
13989;SDS011;7069;52.528;13.316;2023-02-28T11:56:16;3.07;;;2.40;;
13989;SDS011;7069;52.528;13.316;2023-02-28T11:58:48;3.43;;;2.53;;
13989;SDS011;7069;52.528;13.316;2023-02-28T12:01:19;2.80;;;1.57;;
13989;SDS011;7069;52.528;13.316;2023-02-28T12:03:50;8.20;;;1.93;;
13989;SDS011;7069;52.528;13.316;2023-02-28T12:06:24;4.13;;;2.60;;
13989;SDS011;7069;52.528;13.316;2023-02-28T12:09:03;5.97;;;2.33;;
13989;SDS011;7069;52.528;13.316;2023-02-28T12:11:35;2.33;;;2.13;;
13989;SDS011;7069;52.528;13.316;2023-02-28T12:14:21;2.73;;;2.33;;
13989;SDS011;7069;52.528;13.316;2023-02-28T12:16:53;3.67;;;2.83;;
13989;SDS011;7069;52.528;13.316;2023-02-28T12:19:23;6.47;;;3.40;;
13989;SDS011;7069;52.528;13.316;2023-02-28T12:22:02;3.13;;;2.80;;
13989;SDS011;7069;52.528;13.316;2023-02-28T12:27:14;11.90;;;3.53;;
13989;SDS011;7069;52.528;13.316;2023-02-28T12:29:43;6.03;;;2.43;;
13989;SDS011;7069;52.528;13.316;2023-02-28T12:32:12;11.47;;;3.10;;
13989;SDS011;7069;52.528;13.316;2023-02-28T12:34:42;10.47;;;3.60;;
13989;SDS011;7069;52.528;13.316;2023-02-28T12:37:12;4.23;;;2.33;;
13989;SDS011;7069;52.528;13.316;2023-02-28T12:39:41;4.60;;;2.70;;
13989;SDS011;7069;52.528;13.316;2023-02-28T12:42:10;5.27;;;2.53;;
13989;SDS011;7069;52.528;13.316;2023-02-28T12:44:42;2.87;;;2.20;;
13989;SDS011;7069;52.528;13.316;2023-02-28T12:47:11;5.20;;;2.70;;
13989;SDS011;7069;52.528;13.316;2023-02-28T12:49:40;7.07;;;3.10;;
13989;SDS011;7069;52.528;13.316;2023-02-28T12:52:08;3.67;;;2.90;;
13989;SDS011;7069;52.528;13.316;2023-02-28T12:54:40;3.63;;;2.47;;
13989;SDS011;7069;52.528;13.316;2023-02-28T12:57:11;4.33;;;2.57;;
13989;SDS011;7069;52.528;13.316;2023-02-28T12:59:41;8.30;;;2.63;;
13989;SDS011;7069;52.528;13.316;2023-02-28T13:04:55;2.83;;;2.40;;
13989;SDS011;7069;52.528;13.316;2023-02-28T13:07:33;3.33;;;2.87;;
13989;SDS011;7069;52.528;13.316;2023-02-28T13:10:06;3.23;;;2.70;;
13989;SDS011;7069;52.528;13.316;2023-02-28T13:12:33;3.97;;;2.50;;
13989;SDS011;7069;52.528;13.316;2023-02-28T13:15:04;8.63;;;2.80;;
13989;SDS011;7069;52.528;13.316;2023-02-28T13:17:30;2.80;;;2.53;;
13989;SDS011;7069;52.528;13.316;2023-02-28T13:19:57;5.93;;;2.73;;
13989;SDS011;7069;52.528;13.316;2023-02-28T13:22:37;4.73;;;2.70;;
13989;SDS011;7069;52.528;13.316;2023-02-28T13:25:31;2.57;;;2.30;;
13989;SDS011;7069;52.528;13.316;2023-02-28T13:28:10;2.83;;;2.63;;
13989;SDS011;7069;52.528;13.316;2023-02-28T13:33:24;3.73;;;2.97;;
13989;SDS011;7069;52.528;13.316;2023-02-28T13:36:01;5.83;;;2.70;;
13989;SDS011;7069;52.528;13.316;2023-02-28T13:38:39;3.13;;;2.13;;
13989;SDS011;7069;52.528;13.316;2023-02-28T13:44:02;3.03;;;2.37;;
13989;SDS011;7069;52.528;13.316;2023-02-28T13:46:29;4.57;;;2.57;;
13989;SDS011;7069;52.528;13.316;2023-02-28T13:48:55;4.03;;;2.80;;
13989;SDS011;7069;52.528;13.316;2023-02-28T13:51:37;5.30;;;2.73;;
13989;SDS011;7069;52.528;13.316;2023-02-28T13:54:07;5.93;;;2.87;;
13989;SDS011;7069;52.528;13.316;2023-02-28T13:56:42;4.07;;;2.60;;
13989;SDS011;7069;52.528;13.316;2023-02-28T13:59:16;4.80;;;2.57;;
13989;SDS011;7069;52.528;13.316;2023-02-28T14:07:23;3.83;;;2.33;;
13989;SDS011;7069;52.528;13.316;2023-02-28T14:09:54;3.60;;;2.73;;
13989;SDS011;7069;52.528;13.316;2023-02-28T14:15:24;3.70;;;2.63;;
13989;SDS011;7069;52.528;13.316;2023-02-28T14:17:53;2.90;;;2.63;;
13989;SDS011;7069;52.528;13.316;2023-02-28T14:20:20;4.27;;;3.20;;
13989;SDS011;7069;52.528;13.316;2023-02-28T14:22:51;5.00;;;2.83;;
13989;SDS011;7069;52.528;13.316;2023-02-28T14:25:22;4.27;;;2.83;;
13989;SDS011;7069;52.528;13.316;2023-02-28T14:27:50;3.87;;;2.60;;
13989;SDS011;7069;52.528;13.316;2023-02-28T14:30:29;3.33;;;2.63;;
13989;SDS011;7069;52.528;13.316;2023-02-28T14:33:08;2.93;;;2.63;;
13989;SDS011;7069;52.528;13.316;2023-02-28T14:35:45;6.60;;;2.67;;
13989;SDS011;7069;52.528;13.316;2023-02-28T14:38:17;3.60;;;2.93;;
13989;SDS011;7069;52.528;13.316;2023-02-28T14:40:46;4.97;;;2.87;;
13989;SDS011;7069;52.528;13.316;2023-02-28T14:43:18;4.17;;;2.90;;
13989;SDS011;7069;52.528;13.316;2023-02-28T14:45:48;3.83;;;2.60;;
13989;SDS011;7069;52.528;13.316;2023-02-28T14:48:15;4.23;;;3.27;;
13989;SDS011;7069;52.528;13.316;2023-02-28T14:50:42;3.23;;;2.43;;
13989;SDS011;7069;52.528;13.316;2023-02-28T14:53:15;3.30;;;2.93;;
13989;SDS011;7069;52.528;13.316;2023-02-28T14:55:44;4.10;;;2.60;;
13989;SDS011;7069;52.528;13.316;2023-02-28T14:58:17;3.07;;;2.47;;
13989;SDS011;7069;52.528;13.316;2023-02-28T15:00:48;4.40;;;2.90;;
13989;SDS011;7069;52.528;13.316;2023-02-28T15:03:17;3.20;;;2.67;;
13989;SDS011;7069;52.528;13.316;2023-02-28T15:05:51;3.63;;;3.07;;
13989;SDS011;7069;52.528;13.316;2023-02-28T15:08:17;2.87;;;2.37;;
13989;SDS011;7069;52.528;13.316;2023-02-28T15:10:45;2.40;;;1.87;;
13989;SDS011;7069;52.528;13.316;2023-02-28T15:13:12;3.53;;;2.60;;
13989;SDS011;7069;52.528;13.316;2023-02-28T15:15:43;4.33;;;2.83;;
13989;SDS011;7069;52.528;13.316;2023-02-28T15:18:13;3.87;;;2.77;;
13989;SDS011;7069;52.528;13.316;2023-02-28T15:20:41;3.60;;;2.77;;